Time;durP1;ratioP1;P1;durP2;ratioP2;P2;SDS_P1;SDS_P2;PMS_P1;PMS_P2;Temp;Humidity;BMP_temperature;BMP_pressure;BME280_temperature;BME280_humidity;BME280_pressure;Samples;Min_cycle;Max_cycle;Signal;HPM_P1;HPM_P2
2023/06/24 00:01:17;;;;;;;7.47;3.03;;;;;;;19.21;100.00;102346.66;4997350;28;20037;-77
2023/06/24 00:03:46;;;;;;;6.72;2.85;;;;;;;19.13;100.00;102353.13;5011511;28;20026;-76
2023/06/24 00:06:17;;;;;;;5.70;2.92;;;;;;;19.09;100.00;102357.31;5013856;28;20033;-75
2023/06/24 00:08:46;;;;;;;6.90;3.30;;;;;;;19.12;100.00;102358.78;5013760;28;20077;-77
2023/06/24 00:11:13;;;;;;;5.88;3.00;;;;;;;19.14;100.00;102359.41;5013799;28;20503;-77
2023/06/24 00:13:39;;;;;;;4.15;3.10;;;;;;;19.12;100.00;102362.38;5013339;28;20022;-77
2023/06/24 00:16:06;;;;;;;6.55;2.97;;;;;;;19.12;100.00;102361.53;5013415;28;20100;-77
2023/06/24 00:18:32;;;;;;;6.45;2.55;;;;;;;19.13;100.00;102369.50;5013446;28;20022;-77
2023/06/24 00:20:57;;;;;;;5.13;2.80;;;;;;;19.10;100.00;102358.97;5013123;28;20095;-76
2023/06/24 00:23:26;;;;;;;7.38;3.13;;;;;;;19.04;100.00;102359.81;5013202;28;20029;-77
2023/06/24 00:25:55;;;;;;;4.85;2.88;;;;;;;19.00;100.00;102358.50;5013250;28;20141;-76
2023/06/24 00:28:21;;;;;;;4.00;2.58;;;;;;;18.98;100.00;102361.41;5011319;28;20030;-75
2023/06/24 00:30:47;;;;;;;5.82;2.80;;;;;;;18.93;100.00;102357.63;5014239;28;20033;-77
2023/06/24 00:33:13;;;;;;;8.32;3.22;;;;;;;18.91;100.00;102360.56;5013106;28;20022;-77
2023/06/24 00:35:42;;;;;;;5.63;3.30;;;;;;;18.86;100.00;102360.31;5014916;28;20102;-77
2023/06/24 00:38:08;;;;;;;4.32;2.88;;;;;;;18.79;100.00;102359.41;5016257;28;20070;-76
2023/06/24 00:40:34;;;;;;;8.32;3.80;;;;;;;18.74;100.00;102359.13;5013706;28;20037;-77
2023/06/24 00:43:01;;;;;;;3.20;2.85;;;;;;;18.70;100.00;102363.31;5013004;28;20030;-76
2023/06/24 00:45:27;;;;;;;4.45;3.15;;;;;;;18.65;100.00;102355.72;4996806;28;20026;-77
2023/06/24 00:47:54;;;;;;;4.80;2.90;;;;;;;18.67;100.00;102363.69;5011663;28;20034;-76
2023/06/24 00:50:20;;;;;;;6.97;3.17;;;;;;;18.70;100.00;102358.72;4994227;28;20029;-76
2023/06/24 00:52:45;;;;;;;2.97;2.67;;;;;;;18.71;100.00;102357.66;5011656;28;20101;-75
2023/06/24 00:55:12;;;;;;;5.13;2.92;;;;;;;18.72;100.00;102361.22;5011508;28;20048;-76
2023/06/24 00:57:39;;;;;;;6.80;3.58;;;;;;;18.70;100.00;102357.88;4998457;28;20099;-76
2023/06/24 01:00:13;;;;;;;5.03;3.13;;;;;;;18.70;100.00;102355.16;5005099;28;20373;-77
2023/06/24 01:02:38;;;;;;;5.53;2.95;;;;;;;18.68;100.00;102355.34;5003021;28;20056;-77
2023/06/24 01:05:05;;;;;;;5.30;3.20;;;;;;;18.66;100.00;102351.94;5019749;28;20033;-77
2023/06/24 01:07:32;;;;;;;3.38;2.95;;;;;;;18.65;100.00;102350.28;5015669;28;20044;-77
2023/06/24 01:09:57;;;;;;;6.00;3.00;;;;;;;18.61;100.00;102344.38;5000861;28;20036;-77
2023/06/24 01:12:23;;;;;;;5.30;2.83;;;;;;;18.60;100.00;102347.31;5019707;28;20030;-77
2023/06/24 01:14:48;;;;;;;6.22;3.25;;;;;;;18.56;100.00;102349.59;5020562;28;20025;-76
2023/06/24 01:17:16;;;;;;;6.28;2.85;;;;;;;18.52;100.00;102345.56;5002602;28;20030;-77
2023/06/24 01:20:00;;;;;;;5.30;2.80;;;;;;;18.51;100.00;102340.28;5001605;28;20018;-76
2023/06/24 01:23:03;;;;;;;6.18;2.90;;;;;;;18.48;100.00;102343.44;5016381;28;20033;-77
2023/06/24 01:25:50;;;;;;;3.33;2.40;;;;;;;18.45;100.00;102338.38;4969796;28;20045;-77
2023/06/24 01:28:27;;;;;;;4.75;2.95;;;;;;;18.42;100.00;102343.19;5008622;28;20088;-76
2023/06/24 01:31:21;;;;;;;4.35;2.85;;;;;;;18.46;100.00;102329.16;5006040;28;20052;-77
2023/06/24 01:33:52;;;;;;;5.32;2.75;;;;;;;18.47;100.00;102337.13;5010277;28;20021;-77
2023/06/24 01:36:18;;;;;;;6.40;2.80;;;;;;;18.47;100.00;102326.22;4996267;28;20030;-77
2023/06/24 01:39:01;;;;;;;7.85;2.78;;;;;;;18.46;100.00;102330.00;4994053;28;20155;-77
2023/06/24 01:41:33;;;;;;;3.22;2.65;;;;;;;18.47;100.00;102331.69;4993783;28;20034;-76
2023/06/24 01:43:59;;;;;;;5.13;3.08;;;;;;;18.43;100.00;102335.84;5010807;28;20033;-76
2023/06/24 01:46:25;;;;;;;4.13;3.10;;;;;;;18.42;100.00;102329.53;5012013;28;20144;-77
2023/06/24 01:48:53;;;;;;;6.50;2.95;;;;;;;18.42;100.00;102339.63;5011212;28;20125;-77
2023/06/24 01:51:20;;;;;;;3.95;2.50;;;;;;;18.40;100.00;102334.38;5010453;28;20392;-77
2023/06/24 01:53:54;;;;;;;8.32;3.15;;;;;;;18.42;100.00;102334.16;5009810;28;20022;-76
2023/06/24 01:56:22;;;;;;;10.85;3.42;;;;;;;18.42;100.00;102339.63;4992306;28;20149;-77
2023/06/24 01:58:48;;;;;;;3.55;2.90;;;;;;;18.41;100.00;102338.78;4993343;28;20054;-76
2023/06/24 02:01:14;;;;;;;6.30;3.00;;;;;;;18.42;100.00;102345.91;4993170;28;20037;-77
2023/06/24 02:03:41;;;;;;;6.22;2.88;;;;;;;18.43;100.00;102347.59;4996848;28;20496;-76
2023/06/24 02:06:09;;;;;;;6.63;3.05;;;;;;;18.42;100.00;102339.63;4995565;28;20022;-76
2023/06/24 02:08:34;;;;;;;;;;;;;;;18.40;100.00;102342.56;4995227;28;20112;-77
2023/06/24 02:11:00;;;;;;;5.28;3.05;;;;;;;18.38;100.00;102339.19;4995117;28;19960;-76
2023/06/24 02:13:26;;;;;;;6.40;3.03;;;;;;;18.37;100.00;102328.47;5011450;28;20034;-75
2023/06/24 02:15:52;;;;;;;6.18;3.00;;;;;;;18.34;100.00;102331.59;4994089;28;20539;-77
2023/06/24 02:18:19;;;;;;;7.63;3.47;;;;;;;18.35;100.00;102331.41;5002579;28;20037;-76
2023/06/24 02:20:46;;;;;;;5.33;2.60;;;;;;;18.33;100.00;102329.91;4998514;28;20065;-77
2023/06/24 02:23:12;;;;;;;6.10;3.33;;;;;;;18.29;100.00;102325.88;4999909;28;20040;-77
2023/06/24 02:25:41;;;;;;;6.43;3.15;;;;;;;18.25;100.00;102321.88;5001337;28;20036;-77
2023/06/24 02:28:08;;;;;;;5.13;3.03;;;;;;;18.22;100.00;102320.38;5001648;28;20041;-77
2023/06/24 02:30:35;;;;;;;7.93;3.08;;;;;;;18.20;100.00;102328.75;4999027;28;20487;-77
2023/06/24 02:33:00;;;;;;;5.50;3.33;;;;;;;18.17;100.00;102326.41;4995790;28;20034;-77
2023/06/24 02:35:26;;;;;;;6.28;3.13;;;;;;;18.13;100.00;102319.66;5013344;28;20028;-77
2023/06/24 02:37:51;;;;;;;4.60;3.10;;;;;;;18.09;100.00;102323.84;5012936;28;20075;-77
2023/06/24 02:40:16;;;;;;;5.63;3.08;;;;;;;18.09;100.00;102329.28;5000491;28;20058;-77
2023/06/24 02:42:42;;;;;;;6.65;3.33;;;;;;;18.06;100.00;102326.97;5004246;28;20072;-77
2023/06/24 02:45:08;;;;;;;8.23;3.30;;;;;;;18.07;100.00;102325.06;5010337;28;20068;-77
2023/06/24 02:47:34;;;;;;;6.75;3.33;;;;;;;18.04;100.00;102330.91;5012061;28;20084;-77
2023/06/24 02:50:00;;;;;;;4.53;3.05;;;;;;;17.98;100.00;102322.47;5012333;28;20519;-77
2023/06/24 02:52:28;;;;;;;7.30;3.78;;;;;;;17.96;100.00;102321.00;4978568;28;20056;-78
2023/06/24 02:54:55;;;;;;;13.93;3.83;;;;;;;17.91;100.00;102318.84;5014519;28;20120;-78
2023/06/24 02:57:21;;;;;;;5.37;3.77;;;;;;;17.91;100.00;102326.19;4995414;28;20034;-77
2023/06/24 02:59:47;;;;;;;6.82;3.88;;;;;;;17.89;100.00;102322.78;4999593;28;20788;-76
2023/06/24 03:02:13;;;;;;;8.77;3.80;;;;;;;17.89;100.00;102323.63;5016598;28;20075;-77
2023/06/24 03:04:39;;;;;;;9.27;3.80;;;;;;;17.88;100.00;102310.22;5000042;28;20482;-78
2023/06/24 03:07:05;;;;;;;5.50;3.72;;;;;;;17.90;100.00;102316.31;5018266;28;20030;-78
2023/06/24 03:09:34;;;;;;;9.00;3.50;;;;;;;17.93;100.00;102322.22;4998838;28;20026;-77
2023/06/24 03:11:59;;;;;;;6.47;3.72;;;;;;;17.96;100.00;102312.81;4997693;28;20033;-76
2023/06/24 03:14:24;;;;;;;7.32;3.80;;;;;;;17.96;100.00;102321.00;5015380;28;20429;-77
2023/06/24 03:16:50;;;;;;;7.40;3.83;;;;;;;17.96;100.00;102324.56;5014513;28;20040;-76
2023/06/24 03:19:15;;;;;;;8.98;4.10;;;;;;;17.95;100.00;102325.56;5014605;28;20030;-77
2023/06/24 03:21:41;;;;;;;6.95;4.15;;;;;;;17.97;100.00;102319.94;5014412;28;20176;-77
2023/06/24 03:24:06;;;;;;;6.43;3.80;;;;;;;17.99;100.00;102323.31;5014220;28;20483;-77
2023/06/24 03:26:35;;;;;;;7.97;4.32;;;;;;;18.02;100.00;102322.91;5013486;28;20030;-77
2023/06/24 03:29:01;;;;;;;8.38;3.92;;;;;;;18.04;100.00;102328.19;5013496;28;20049;-77
2023/06/24 03:31:26;;;;;;;11.32;3.85;;;;;;;18.05;100.00;102327.13;5013074;28;20038;-77
2023/06/24 03:33:52;;;;;;;8.07;3.78;;;;;;;18.06;100.00;102321.50;5012734;28;20116;-77
2023/06/24 03:36:17;;;;;;;9.32;4.07;;;;;;;18.08;100.00;102322.13;5012319;28;20481;-76
2023/06/24 03:38:42;;;;;;;5.65;4.28;;;;;;;18.08;100.00;102327.56;5013757;28;20034;-77
2023/06/24 03:41:08;;;;;;;9.20;4.97;;;;;;;18.09;100.00;102323.84;5013056;28;20026;-76
2023/06/24 03:43:33;;;;;;;7.93;4.45;;;;;;;18.08;100.00;102326.75;5013306;28;20402;-77
2023/06/24 03:46:00;;;;;;;8.35;4.05;;;;;;;18.06;100.00;102324.22;5013354;28;20119;-76
2023/06/24 03:48:25;;;;;;;7.07;4.65;;;;;;;18.04;100.00;102334.47;5013286;28;20337;-76
2023/06/24 03:50:51;;;;;;;8.82;4.60;;;;;;;17.95;100.00;102338.34;5012962;28;20124;-76
2023/06/24 03:53:16;;;;;;;6.28;5.00;;;;;;;17.91;100.00;102337.06;5012499;28;20108;-76
2023/06/24 03:55:41;;;;;;;13.05;4.63;;;;;;;17.91;100.00;102342.53;5013257;28;20038;-77
2023/06/24 03:58:08;;;;;;;9.50;5.60;;;;;;;17.88;100.00;102345.63;5012430;28;20026;-77
2023/06/24 04:00:33;;;;;;;13.57;5.40;;;;;;;17.88;100.00;102342.91;5011708;28;20018;-76
2023/06/24 04:03:01;;;;;;;10.95;5.18;;;;;;;17.89;100.00;102344.59;5012343;28;20358;-77
2023/06/24 04:05:26;;;;;;;10.60;5.53;;;;;;;17.86;100.00;102351.25;5012985;28;20037;-76
2023/06/24 04:07:52;;;;;;;12.15;5.50;;;;;;;17.87;100.00;102347.50;5013531;28;20025;-77
2023/06/24 04:10:17;;;;;;;13.07;5.55;;;;;;;17.88;100.00;102353.81;5012600;28;20392;-77
2023/06/24 04:12:43;;;;;;;8.68;5.07;;;;;;;17.92;100.00;102355.09;5011263;28;20042;-77
2023/06/24 04:15:09;;;;;;;13.70;5.30;;;;;;;17.93;100.00;102356.75;5003284;28;20497;-77
2023/06/24 04:17:34;;;;;;;6.57;5.18;;;;;;;18.05;100.00;102362.56;5006013;28;20034;-77
2023/06/24 04:20:00;;;;;;;8.73;5.43;;;;;;;18.01;100.00;102356.66;5012591;28;20045;-78
2023/06/24 04:22:26;;;;;;;7.32;5.43;;;;;;;18.03;100.00;102356.44;4994216;28;20036;-77
2023/06/24 04:24:51;;;;;;;9.98;5.18;;;;;;;18.05;100.00;102344.31;5012527;28;20385;-78
2023/06/24 04:27:17;;;;;;;9.15;5.35;;;;;;;18.06;100.00;102346.03;5011956;28;20120;-76
2023/06/24 04:29:42;;;;;;;8.45;5.63;;;;;;;18.08;100.00;102352.09;5011990;28;20388;-76
2023/06/24 04:32:08;;;;;;;9.85;5.78;;;;;;;18.12;100.00;102350.69;5013502;28;20037;-78
2023/06/24 04:34:33;;;;;;;7.20;5.00;;;;;;;18.18;100.00;102349.91;5013060;28;20583;-77
2023/06/24 04:36:58;;;;;;;12.73;5.28;;;;;;;18.23;100.00;102362.09;5011841;28;20507;-77
2023/06/24 04:39:24;;;;;;;7.57;5.10;;;;;;;18.29;100.00;102356.69;5013063;28;20041;-77
2023/06/24 04:41:49;;;;;;;6.75;4.82;;;;;;;18.39;100.00;102368.09;5012356;28;20117;-77
2023/06/24 04:44:15;;;;;;;9.95;5.80;;;;;;;18.39;100.00;102361.81;5012141;28;20068;-77
2023/06/24 04:46:40;;;;;;;8.23;5.45;;;;;;;18.42;100.00;102358.69;5013302;28;20040;-78
2023/06/24 04:49:06;;;;;;;8.27;5.55;;;;;;;18.39;100.00;102365.38;5002591;28;20026;-77
2023/06/24 04:51:32;;;;;;;8.27;6.20;;;;;;;18.27;100.00;102357.94;5007096;28;20189;-77
2023/06/24 04:53:57;;;;;;;8.30;5.63;;;;;;;18.24;100.00;102358.31;4994041;28;20458;-76
2023/06/24 04:56:23;;;;;;;10.95;6.05;;;;;;;18.27;100.00;102363.38;5012138;28;20090;-77
2023/06/24 04:58:48;;;;;;;6.90;5.03;;;;;;;18.30;100.00;102360.25;5014117;28;20481;-77
2023/06/24 05:01:13;;;;;;;8.75;5.93;;;;;;;18.37;100.00;102363.91;5012877;28;20134;-76
2023/06/24 05:03:39;;;;;;;8.93;6.38;;;;;;;18.41;100.00;102370.66;5012705;28;20424;-76
2023/06/24 05:06:04;;;;;;;13.00;6.50;;;;;;;18.49;100.00;102361.50;5012601;28;20331;-76
2023/06/24 05:08:30;;;;;;;9.98;6.05;;;;;;;18.49;100.00;102362.31;5013956;28;20469;-77
2023/06/24 05:10:55;;;;;;;12.77;6.75;;;;;;;18.51;100.00;102368.44;5013932;28;20026;-77
2023/06/24 05:13:21;;;;;;;10.88;6.65;;;;;;;18.50;100.00;102369.44;5007707;28;20026;-77
2023/06/24 05:15:46;;;;;;;12.18;7.00;;;;;;;18.53;100.00;102373.66;4989443;28;20029;-77
2023/06/24 05:18:11;;;;;;;11.75;6.30;;;;;;;18.56;100.00;102363.22;5013780;28;20028;-77
2023/06/24 05:20:37;;;;;;;10.93;6.65;;;;;;;18.63;100.00;102379.63;4994088;28;20418;-77
2023/06/24 05:23:02;;;;;;;10.85;6.57;;;;;;;18.65;100.00;102367.47;5012313;28;20330;-77
2023/06/24 05:25:27;;;;;;;23.05;7.80;;;;;;;18.73;100.00;102369.22;5012012;28;20089;-77
2023/06/24 05:27:53;;;;;;;10.93;6.72;;;;;;;18.74;100.00;102370.88;5012658;28;20037;-77
2023/06/24 05:30:18;;;;;;;15.00;6.95;;;;;;;18.73;100.00;102369.22;5013253;28;20121;-77
2023/06/24 05:32:44;;;;;;;10.38;6.82;;;;;;;18.78;100.00;102374.94;5014840;28;20030;-78
2023/06/24 05:35:09;;;;;;;13.57;7.38;;;;;;;18.86;100.00;102373.97;5011212;28;20049;-77
2023/06/24 05:37:35;;;;;;;12.80;6.85;;;;;;;18.89;100.00;102378.16;5009484;28;20058;-77
2023/06/24 05:40:01;;;;;;;10.93;5.90;;;;;;;18.97;100.00;102376.13;5009847;28;20636;-77
2023/06/24 05:42:27;;;;;;;16.73;6.47;;;;;;;19.03;100.00;102374.47;5008360;28;20034;-77
2023/06/24 05:44:52;;;;;;;12.38;6.35;;;;;;;19.10;100.00;102386.28;4989719;28;20030;-76
2023/06/24 05:47:18;;;;;;;12.65;6.53;;;;;;;19.15;100.00;102389.25;5008884;28;20042;-77
2023/06/24 05:49:43;;;;;;;12.93;5.63;;;;;;;19.31;100.00;102393.53;5007156;28;20133;-76
2023/06/24 05:52:09;;;;;;;12.68;6.03;;;;;;;19.48;100.00;102392.16;5007409;28;20025;-76
2023/06/24 05:54:34;;;;;;;11.63;5.70;;;;;;;19.49;100.00;102396.56;5008750;28;20480;-77
2023/06/24 05:56:59;;;;;;;9.88;5.80;;;;;;;19.62;100.00;102403.13;5009407;28;20037;-77
2023/06/24 05:59:25;;;;;;;10.48;5.78;;;;;;;19.78;100.00;102401.97;4990981;28;20438;-77
2023/06/24 06:01:50;;;;;;;14.20;6.32;;;;;;;19.97;100.00;102397.59;5009556;28;20117;-76
2023/06/24 06:04:16;;;;;;;11.77;5.65;;;;;;;20.13;100.00;102387.09;5010641;28;20038;-77
2023/06/24 06:06:41;;;;;;;9.13;5.47;;;;;;;20.33;100.00;102386.28;5011586;28;20034;-78
2023/06/24 06:09:06;;;;;;;9.00;6.43;;;;;;;20.31;100.00;102386.50;5009145;28;20030;-77
2023/06/24 06:11:32;;;;;;;10.30;6.38;;;;;;;20.41;100.00;102379.78;5011255;28;20037;-77
2023/06/24 06:13:57;;;;;;;11.32;6.35;;;;;;;20.57;100.00;102387.59;5010615;28;20057;-77
2023/06/24 06:16:23;;;;;;;12.70;6.68;;;;;;;20.66;100.00;102385.47;5009790;28;20088;-77
2023/06/24 06:18:48;;;;;;;9.55;6.03;;;;;;;20.53;100.00;102389.00;5009509;28;20034;-77
2023/06/24 06:21:14;;;;;;;10.93;6.32;;;;;;;20.78;100.00;102384.63;5009208;28;20029;-77
2023/06/24 06:23:39;;;;;;;11.88;6.00;;;;;;;21.02;100.00;102385.00;5011003;28;20029;-77
2023/06/24 06:26:05;;;;;;;10.05;6.40;;;;;;;21.18;100.00;102376.31;5010572;28;20422;-77
2023/06/24 06:28:30;;;;;;;15.20;6.82;;;;;;;21.31;100.00;102378.16;5006687;28;20038;-75
2023/06/24 06:30:57;;;;;;;21.55;6.90;;;;;;;21.47;100.00;102380.44;4991404;28;20046;-76
2023/06/24 06:33:22;;;;;;;11.18;6.60;;;;;;;21.59;100.00;102374.28;4991913;28;20038;-76
2023/06/24 06:35:47;;;;;;;12.95;7.15;;;;;;;21.33;100.00;102384.28;5008899;28;20036;-75
2023/06/24 06:38:13;;;;;;;12.23;6.70;;;;;;;21.58;100.00;102378.91;5008364;28;20156;-77
2023/06/24 06:40:38;;;;;;;10.85;6.53;;;;;;;21.88;100.00;102375.59;5008378;28;20380;-76
2023/06/24 06:43:04;;;;;;;10.50;6.75;;;;;;;22.16;100.00;102374.38;5008611;28;20030;-76
2023/06/24 06:45:29;;;;;;;11.10;6.90;;;;;;;22.12;100.00;102377.56;5010663;28;20030;-77
2023/06/24 06:47:54;;;;;;;9.68;6.47;;;;;;;22.16;100.00;102379.84;5010278;28;20030;-77
2023/06/24 06:50:20;;;;;;;12.95;7.22;;;;;;;21.99;100.00;102380.38;4989668;28;20685;-77
2023/06/24 06:52:45;;;;;;;14.38;6.50;;;;;;;22.15;100.00;102379.00;5008317;28;20104;-77
2023/06/24 06:55:10;;;;;;;10.50;6.40;;;;;;;22.49;100.00;102388.69;5008926;28;20050;-77
2023/06/24 06:57:36;;;;;;;11.23;6.60;;;;;;;22.73;100.00;102386.16;4993810;28;20032;-78
2023/06/24 07:00:02;;;;;;;11.80;6.00;;;;;;;23.06;100.00;102385.00;5012919;28;20030;-77
2023/06/24 07:02:27;;;;;;;9.23;5.53;;;;;;;23.53;100.00;102388.88;5012585;28;20034;-77
2023/06/24 07:04:52;;;;;;;14.10;6.18;;;;;;;24.02;100.00;102386.97;5013126;28;20050;-77
2023/06/24 07:07:18;;;;;;;12.55;6.28;;;;;;;24.62;100.00;102382.41;5009810;28;20445;-77
2023/06/24 07:09:43;;;;;;;13.65;6.40;;;;;;;25.48;100.00;102390.97;5001462;28;20477;-77
2023/06/24 07:12:09;;;;;;;10.50;5.70;;;;;;;26.38;100.00;102379.13;4999658;28;20038;-77
2023/06/24 07:14:34;;;;;;;10.80;5.55;;;;;;;26.72;100.00;102384.66;4990896;28;20056;-77
2023/06/24 07:17:00;;;;;;;10.80;5.88;;;;;;;26.49;100.00;102380.97;5008082;28;20083;-77
2023/06/24 07:19:25;;;;;;;8.73;6.03;;;;;;;27.08;100.00;102377.72;5009218;28;20135;-77
2023/06/24 07:21:51;;;;;;;9.05;5.97;;;;;;;27.02;100.00;102375.16;4991383;28;20049;-77
2023/06/24 07:24:17;;;;;;;12.00;6.35;;;;;;;27.32;100.00;102372.81;5009404;28;20034;-78
2023/06/24 07:26:42;;;;;;;10.75;6.20;;;;;;;27.26;100.00;102384.91;5011809;28;20029;-78
2023/06/24 07:29:08;;;;;;;14.00;6.72;;;;;;;27.31;100.00;102376.69;5011738;28;20026;-77
2023/06/24 07:31:37;;;;;;;9.55;6.05;;;;;;;28.19;100.00;102373.75;5004257;28;20022;-77
2023/06/24 07:34:02;;;;;;;12.48;6.15;;;;;;;27.99;100.00;102376.34;5011091;28;20042;-77
2023/06/24 07:36:28;;;;;;;10.23;5.85;;;;;;;28.56;99.84;102380.44;5013559;28;20040;-78
2023/06/24 07:38:53;;;;;;;16.95;6.13;;;;;;;27.59;100.00;102377.53;5014966;28;20045;-77
2023/06/24 07:41:18;;;;;;;12.80;6.55;;;;;;;27.44;100.00;102374.63;5014891;28;20041;-77
2023/06/24 07:43:44;;;;;;;13.98;5.93;;;;;;;27.59;100.00;102391.38;5016294;28;20037;-77
2023/06/24 07:46:09;;;;;;;21.48;6.45;;;;;;;27.69;100.00;102383.19;5015061;28;20363;-78
2023/06/24 07:48:35;;;;;;;11.55;6.30;;;;;;;27.69;100.00;102383.19;4994039;28;20030;-76
2023/06/24 07:51:00;;;;;;;14.43;6.82;;;;;;;27.30;100.00;102380.50;5010762;28;20022;-77
2023/06/24 07:53:26;;;;;;;10.77;6.15;;;;;;;27.71;100.00;102386.53;5012009;28;20033;-76
2023/06/24 07:55:51;;;;;;;15.20;6.10;;;;;;;28.67;98.23;102385.78;4996524;28;20384;-79
2023/06/24 07:58:16;;;;;;;14.88;6.80;;;;;;;28.44;99.85;102391.72;5015460;28;20029;-77
2023/06/24 08:00:42;;;;;;;12.10;6.20;;;;;;;29.09;95.49;102393.25;5012146;28;20457;-77
2023/06/24 08:03:08;;;;;;;13.07;6.07;;;;;;;28.90;97.13;102389.25;5012692;28;20030;-77
2023/06/24 08:05:33;;;;;;;15.73;5.68;;;;;;;29.17;95.86;102379.97;5011990;28;20083;-77
2023/06/24 08:07:59;;;;;;;10.17;5.33;;;;;;;29.69;92.70;102387.41;5012085;28;20033;-77
2023/06/24 08:10:24;;;;;;;13.23;5.70;;;;;;;30.21;90.52;102391.09;5013381;28;20037;-79
2023/06/24 08:12:49;;;;;;;12.67;5.00;;;;;;;30.54;88.38;102389.69;5012249;28;20279;-77
2023/06/24 08:15:15;;;;;;;15.83;5.43;;;;;;;30.80;86.67;102380.19;5012250;28;20037;-76
2023/06/24 08:17:40;;;;;;;9.30;4.67;;;;;;;30.34;87.62;102383.06;5011988;28;20578;-77
2023/06/24 08:20:06;;;;;;;12.70;4.90;;;;;;;30.70;86.20;102379.41;5009785;28;20401;-76
2023/06/24 08:22:31;;;;;;;9.23;5.30;;;;;;;30.89;84.67;102388.84;5008845;28;20061;-76
2023/06/24 08:24:58;;;;;;;9.67;4.90;;;;;;;30.80;85.55;102391.31;5010740;28;20371;-75
2023/06/24 08:27:23;;;;;;;11.73;5.30;;;;;;;30.59;84.26;102379.41;5010580;28;20033;-76
2023/06/24 08:29:49;;;;;;;9.73;5.80;;;;;;;29.71;86.58;102379.66;5009026;28;20495;-77
2023/06/24 08:32:14;;;;;;;12.43;5.43;;;;;;;29.44;85.75;102385.38;5012045;28;20477;-77
2023/06/24 08:34:40;;;;;;;12.03;5.53;;;;;;;29.16;88.76;102387.47;5012498;28;20113;-80
2023/06/24 08:37:05;;;;;;;7.10;5.00;;;;;;;28.49;91.36;102388.97;5012321;28;20111;-77
2023/06/24 08:39:30;;;;;;;13.30;6.38;;;;;;;28.78;93.09;102378.38;5013581;28;20032;-77
2023/06/24 08:41:56;;;;;;;8.68;5.55;;;;;;;29.50;88.06;102373.19;5011792;28;20068;-77
2023/06/24 08:44:21;;;;;;;10.93;5.17;;;;;;;30.29;87.34;102374.72;5011769;28;20046;-77
2023/06/24 08:46:47;;;;;;;11.47;5.00;;;;;;;30.57;85.12;102387.22;5010905;28;20052;-77
2023/06/24 08:49:22;;;;;;;14.80;5.53;;;;;;;30.02;85.23;102382.44;4991981;28;20536;-77
2023/06/24 08:51:51;;;;;;;15.98;5.78;;;;;;;29.42;87.51;102382.88;5012796;28;20476;-77
2023/06/24 08:54:19;;;;;;;10.70;4.90;;;;;;;29.29;87.63;102372.28;4994193;28;20068;-77
2023/06/24 08:56:45;;;;;;;9.77;4.95;;;;;;;29.03;86.67;102383.22;5011371;28;20041;-77
2023/06/24 08:59:10;;;;;;;12.47;5.40;;;;;;;28.74;89.35;102373.63;5011591;28;20033;-76
2023/06/24 09:01:36;;;;;;;15.10;5.30;;;;;;;28.63;89.34;102376.31;5012745;28;20580;-79
2023/06/24 09:04:01;;;;;;;11.90;5.55;;;;;;;28.49;91.21;102375.13;4994420;28;20109;-76
2023/06/24 09:06:26;;;;;;;14.13;5.10;;;;;;;28.91;88.18;102373.44;5010450;28;20026;-77
2023/06/24 09:08:56;;;;;;;7.97;4.90;;;;;;;29.39;87.27;102374.25;5009812;28;20137;-79
2023/06/24 09:11:26;;;;;;;15.93;5.40;;;;;;;29.85;86.09;102380.78;5010097;28;20380;-76
2023/06/24 09:13:59;;;;;;;10.48;4.75;;;;;;;30.15;86.63;102370.81;5010609;28;20033;-76
2023/06/24 09:16:25;;;;;;;13.35;5.50;;;;;;;30.40;83.81;102370.81;5010772;28;20497;-76
2023/06/24 09:18:51;;;;;;;10.07;4.87;;;;;;;30.95;82.11;102382.16;5010640;28;20034;-78
2023/06/24 09:21:27;;;;;;;13.35;4.47;;;;;;;30.37;82.42;102371.38;5010498;28;20659;-78
2023/06/24 09:23:57;;;;;;;14.00;4.93;;;;;;;30.47;80.01;102376.13;5011856;28;20049;-77
2023/06/24 09:26:26;;;;;;;12.10;4.95;;;;;;;30.34;80.18;102371.94;4993341;28;20034;-77
2023/06/24 09:28:52;;;;;;;11.90;4.80;;;;;;;30.61;81.18;102376.38;5011166;28;20395;-78
2023/06/24 09:31:18;;;;;;;9.27;4.30;;;;;;;31.24;78.97;102368.41;5009619;28;20032;-76
2023/06/24 09:33:44;;;;;;;15.90;4.37;;;;;;;31.95;75.65;102371.94;5010195;28;20536;-77
2023/06/24 09:36:14;;;;;;;10.20;4.30;;;;;;;31.58;74.81;102373.28;5010505;28;20034;-78
2023/06/24 09:38:41;;;;;;;13.10;4.97;;;;;;;30.95;77.60;102370.19;5009810;28;20034;-77
2023/06/24 09:41:08;;;;;;;12.05;4.80;;;;;;;30.03;79.55;102370.25;4992347;28;20113;-77
2023/06/24 09:43:35;;;;;;;15.40;6.05;;;;;;;29.27;85.15;102375.31;5002891;28;20113;-78
2023/06/24 09:46:02;;;;;;;14.30;5.97;;;;;;;29.92;83.36;102369.41;5010193;28;20473;-76
2023/06/24 09:48:27;;;;;;;9.60;4.78;;;;;;;30.73;79.97;102370.50;5010121;28;20406;-79
2023/06/24 09:50:55;;;;;;;10.63;4.82;;;;;;;30.21;82.27;102361.38;4992470;28;20088;-77
2023/06/24 09:53:21;;;;;;;8.82;3.85;;;;;;;30.39;79.91;102369.16;5010813;28;20096;-74
2023/06/24 09:55:47;;;;;;;10.40;3.92;;;;;;;31.02;79.25;102370.75;4991886;28;20081;-75
2023/06/24 09:58:13;;;;;;;12.17;5.57;;;;;;;29.83;79.89;102377.44;4992405;28;20068;-77
2023/06/24 10:00:38;;;;;;;11.73;5.07;;;;;;;30.73;79.62;102368.56;5007437;28;20038;-78
2023/06/24 10:03:04;;;;;;;11.00;4.40;;;;;;;31.59;77.02;102366.56;4993219;28;20091;-77
2023/06/24 10:05:29;;;;;;;7.37;4.30;;;;;;;31.60;73.35;102364.66;5010385;28;20477;-76
2023/06/24 10:07:55;;;;;;;9.93;4.00;;;;;;;31.47;75.96;102366.94;5009641;28;20323;-77
2023/06/24 10:10:20;;;;;;;9.80;4.90;;;;;;;31.70;72.99;102370.13;5006457;28;20377;-77
2023/06/24 10:12:46;;;;;;;11.10;4.77;;;;;;;31.53;72.70;102364.94;4991548;28;20030;-76
2023/06/24 10:15:12;;;;;;;9.37;4.90;;;;;;;31.91;71.83;102362.47;5010464;28;20037;-76
2023/06/24 10:17:37;;;;;;;7.30;4.10;;;;;;;32.08;69.06;102371.28;4990313;28;20061;-76
2023/06/24 10:20:06;;;;;;;8.70;4.20;;;;;;;31.65;71.40;102357.09;4995178;28;20858;-78
2023/06/24 10:22:32;;;;;;;10.30;3.70;;;;;;;32.03;69.25;102362.97;4990684;28;20489;-79
2023/06/24 10:25:01;;;;;;;8.43;4.20;;;;;;;31.57;68.89;102357.72;5007266;28;20038;-78
2023/06/24 10:27:31;;;;;;;4.93;3.50;;;;;;;31.99;68.12;102350.72;5009203;28;20440;-77
2023/06/24 10:30:02;;;;;;;11.18;4.28;;;;;;;32.11;67.37;102353.97;4992465;28;20034;-76
2023/06/24 10:32:39;;;;;;;8.95;4.35;;;;;;;32.50;67.03;102349.50;5009262;28;20124;-76
2023/06/24 10:35:05;;;;;;;11.27;4.50;;;;;;;32.28;67.39;102347.16;5009775;28;20084;-74
2023/06/24 10:37:32;;;;;;;10.33;4.03;;;;;;;32.38;67.48;102346.22;5008265;28;20479;-75
2023/06/24 10:40:00;;;;;;;11.10;4.75;;;;;;;32.71;68.66;102350.09;5008921;28;20026;-76
2023/06/24 10:42:42;;;;;;;6.28;4.10;;;;;;;32.88;66.56;102344.88;5011815;28;20508;-76
2023/06/24 10:45:15;;;;;;;15.18;4.03;;;;;;;32.72;68.22;102341.44;5010718;28;20022;-76
2023/06/24 10:47:42;;;;;;;9.13;4.72;;;;;;;32.10;69.23;102346.75;5014142;28;20022;-76
2023/06/24 10:50:10;;;;;;;9.50;4.63;;;;;;;32.49;70.67;102340.31;5010455;28;20053;-76
2023/06/24 10:52:44;;;;;;;10.90;4.75;;;;;;;32.34;70.04;102335.69;4993518;28;20408;-77
2023/06/24 10:55:10;;;;;;;13.05;4.40;;;;;;;32.51;71.14;102346.38;5009747;28;20080;-76
2023/06/24 10:57:36;;;;;;;14.02;5.50;;;;;;;32.77;68.74;102351.69;5010984;28;20084;-77
2023/06/24 11:00:03;;;;;;;9.67;4.57;;;;;;;32.72;68.44;102340.59;5010658;28;20030;-76
2023/06/24 11:02:28;;;;;;;13.10;4.65;;;;;;;33.29;67.90;102343.56;5010255;28;20033;-77
2023/06/24 11:04:55;;;;;;;9.87;4.40;;;;;;;33.42;67.24;102335.25;4993899;28;20064;-77
2023/06/24 11:07:22;;;;;;;15.88;4.68;;;;;;;33.63;66.03;102333.03;5009780;28;20029;-76
2023/06/24 11:09:49;;;;;;;9.55;4.80;;;;;;;33.62;67.43;102334.13;5009421;28;20440;-77
2023/06/24 11:12:15;;;;;;;12.35;4.82;;;;;;;33.61;66.77;102331.66;5010106;28;20029;-77
2023/06/24 11:14:40;;;;;;;9.77;4.87;;;;;;;33.92;64.98;102333.97;5013202;28;20074;-76